Time;durP1;ratioP1;P1;durP2;ratioP2;P2;SDS_P1;SDS_P2;PMS_P1;PMS_P2;Temp;Humidity;BMP_temperature;BMP_pressure;BME280_temperature;BME280_humidity;BME280_pressure;Samples;Min_cycle;Max_cycle;Signal;HPM_P1;HPM_P2
2022/04/27 00:01:57;;;;;;;15.95;9.30;;;;;;;8.68;100.00;93027.00;5052064;28;20102;-84
2022/04/27 00:04:27;;;;;;;16.30;9.07;;;;;;;8.36;100.00;92982.53;5052058;28;20052;-84
2022/04/27 00:06:54;;;;;;;17.58;9.05;;;;;;;8.23;100.00;92970.56;5051625;28;20048;-85
2022/04/27 00:09:20;;;;;;;16.20;9.15;;;;;;;8.67;100.00;93040.00;5051611;28;20051;-85
2022/04/27 00:11:47;;;;;;;15.90;9.77;;;;;;;8.75;100.00;93057.69;5052039;28;20370;-84
2022/04/27 00:14:14;;;;;;;17.05;10.27;;;;;;;8.68;100.00;93037.25;5051566;28;20135;-85
2022/04/27 00:16:42;;;;;;;20.92;10.25;;;;;;;8.25;100.00;92976.28;5051597;28;20127;-85
2022/04/27 00:19:09;;;;;;;17.98;10.52;;;;;;;8.22;100.00;92977.47;5051542;28;20488;-85
2022/04/27 00:21:37;;;;;;;17.30;10.65;;;;;;;8.23;100.00;92998.69;5051804;28;20662;-85
2022/04/27 00:24:04;;;;;;;16.88;10.98;;;;;;;8.58;100.00;93042.00;5059253;28;20052;-85
2022/04/27 00:26:31;;;;;;;17.20;9.98;;;;;;;8.63;100.00;93047.28;5061171;28;20064;-85
2022/04/27 00:28:58;;;;;;;20.17;11.55;;;;;;;8.68;100.00;93039.81;5051383;28;20144;-85
2022/04/27 00:31:25;;;;;;;15.80;10.32;;;;;;;8.61;100.00;93035.69;5051845;28;20048;-84
2022/04/27 00:33:52;;;;;;;20.33;10.50;;;;;;;8.00;100.00;92951.31;5051354;28;20053;-85
2022/04/27 00:36:19;;;;;;;19.80;11.35;;;;;;;8.49;100.00;93025.22;5051067;28;20059;-85
2022/04/27 00:38:48;;;;;;;17.30;10.07;;;;;;;8.18;100.00;92986.53;5051523;28;20048;-84
2022/04/27 00:41:14;;;;;;;17.50;10.40;;;;;;;8.54;100.00;93053.63;5050671;28;20115;-86
2022/04/27 00:43:43;;;;;;;17.15;10.38;;;;;;;8.46;100.00;93051.25;5050747;28;20088;-85
2022/04/27 00:46:11;;;;;;;18.67;10.45;;;;;;;8.40;100.00;93042.59;5050338;28;20056;-85
2022/04/27 00:48:39;;;;;;;15.55;10.25;;;;;;;8.41;100.00;93052.63;5051103;28;20041;-85
2022/04/27 00:51:09;;;;;;;18.73;10.52;;;;;;;8.28;100.00;93047.50;5051305;28;20052;-85
2022/04/27 00:53:37;;;;;;;17.58;10.25;;;;;;;8.27;100.00;93039.06;5050792;28;20056;-85
2022/04/27 00:56:06;;;;;;;18.63;10.68;;;;;;;7.71;100.00;92966.13;5051067;28;20080;-85
2022/04/27 00:58:32;;;;;;;16.35;8.80;;;;;;;7.88;100.00;92989.53;5050467;28;20485;-85
2022/04/27 01:01:00;;;;;;;16.10;9.13;;;;;;;8.12;100.00;93023.94;5050503;28;20053;-85
2022/04/27 01:03:27;;;;;;;13.70;8.40;;;;;;;8.19;100.00;93026.47;5050896;28;20059;-85
2022/04/27 01:05:55;;;;;;;14.05;9.13;;;;;;;8.40;100.00;93056.19;5049830;28;20049;-85
2022/04/27 01:08:22;;;;;;;16.90;9.50;;;;;;;7.87;100.00;92990.50;5049594;28;20690;-85
2022/04/27 01:10:50;;;;;;;14.30;8.05;;;;;;;7.87;100.00;92983.63;5049888;28;20440;-85
2022/04/27 01:13:19;;;;;;;16.13;8.85;;;;;;;7.55;100.00;92934.09;5050014;28;20049;-86
2022/04/27 01:15:46;;;;;;;16.42;9.43;;;;;;;8.32;100.00;93045.38;5049568;28;20091;-85
2022/04/27 01:18:21;;;;;;;15.73;8.95;;;;;;;7.93;100.00;92984.59;5049885;28;20076;-87
2022/04/27 01:20:50;;;;;;;18.58;9.38;;;;;;;7.77;100.00;92975.56;5049761;28;20372;-86
2022/04/27 01:23:18;;;;;;;18.15;10.10;;;;;;;8.17;100.00;93036.13;5049707;28;20165;-86
2022/04/27 01:25:50;;;;;;;18.48;10.60;;;;;;;8.14;100.00;93032.19;5049852;28;20045;-85
2022/04/27 01:28:19;;;;;;;18.98;9.85;;;;;;;7.73;100.00;92987.19;5049387;28;20049;-86
2022/04/27 01:30:46;;;;;;;19.27;10.50;;;;;;;8.13;100.00;93051.09;5049346;28;20072;-86
2022/04/27 01:33:14;;;;;;;19.65;9.88;;;;;;;7.56;100.00;92969.69;5037547;28;20049;-86
2022/04/27 01:35:41;;;;;;;20.05;10.90;;;;;;;7.55;100.00;92985.19;5046421;28;20040;-86
2022/04/27 01:38:09;;;;;;;19.20;11.05;;;;;;;7.88;100.00;93025.31;5043839;28;20107;-85
2022/04/27 01:40:36;;;;;;;21.13;10.75;;;;;;;8.05;100.00;93050.50;5029494;28;20476;-85
2022/04/27 01:43:04;;;;;;;18.52;10.90;;;;;;;7.94;100.00;93050.13;5042781;28;20057;-85
2022/04/27 01:45:31;;;;;;;21.75;10.63;;;;;;;7.84;100.00;93030.06;5030642;28;20045;-85
2022/04/27 01:47:58;;;;;;;18.33;11.73;;;;;;;7.41;100.00;92963.97;5030899;28;20044;-85
2022/04/27 01:50:25;;;;;;;21.30;12.27;;;;;;;7.87;100.00;93029.66;5047260;28;20049;-86
2022/04/27 01:55:38;;;;;;;27.58;15.05;;;;;;;7.37;100.00;92961.03;5048792;28;20056;-85
2022/04/27 01:58:05;;;;;;;19.02;12.63;;;;;;;7.81;100.00;93040.66;5049480;28;20053;-86
2022/04/27 02:00:33;;;;;;;24.98;15.07;;;;;;;7.77;100.00;93038.69;5049199;28;20068;-86
2022/04/27 02:03:00;;;;;;;23.27;13.18;;;;;;;7.34;100.00;92980.09;5049036;28;20041;-85
2022/04/27 02:05:27;;;;;;;22.20;13.90;;;;;;;7.72;100.00;93029.03;5037570;28;317753;-86
2022/04/27 02:07:55;;;;;;;22.20;12.90;;;;;;;7.28;100.00;92962.97;5048545;28;20045;-86
2022/04/27 02:10:22;;;;;;;24.88;13.27;;;;;;;7.33;100.00;92978.47;5049685;28;20060;-86
2022/04/27 02:12:51;;;;;;;19.73;12.73;;;;;;;7.28;100.00;92970.66;5052733;28;20048;-86
2022/04/27 02:15:18;;;;;;;23.83;11.80;;;;;;;7.30;100.00;92970.44;5053467;28;20511;-86
2022/04/27 02:17:45;;;;;;;21.80;13.00;;;;;;;7.58;100.00;93021.38;5053830;28;20048;-86
2022/04/27 02:20:12;;;;;;;21.17;11.60;;;;;;;7.54;100.00;93009.97;5053549;28;20049;-86
2022/04/27 02:22:40;;;;;;;24.23;12.43;;;;;;;7.26;100.00;92975.13;5053907;28;20087;-85
2022/04/27 02:25:07;;;;;;;24.25;11.73;;;;;;;7.53;100.00;93026.28;5054028;28;20111;-83
2022/04/27 02:27:37;;;;;;;18.52;11.25;;;;;;;7.05;100.00;92961.53;5053467;28;20515;-86
2022/04/27 02:30:22;;;;;;;24.05;12.70;;;;;;;7.03;100.00;92966.06;5053434;28;20041;-88
2022/04/27 02:32:49;;;;;;;;;;;;;;;7.65;100.00;93046.97;5053925;28;20052;-86
2022/04/27 02:35:16;;;;;;;23.00;13.38;;;;;;;6.91;100.00;92953.06;5053481;28;19986;-87
2022/04/27 02:37:43;;;;;;;27.42;14.95;;;;;;;7.18;100.00;92983.00;5053920;28;20045;-88
2022/04/27 02:40:11;;;;;;;23.75;13.48;;;;;;;7.50;100.00;93039.44;5053859;28;20135;-88
2022/04/27 02:42:38;;;;;;;20.85;13.10;;;;;;;6.84;100.00;92931.09;5053439;28;20126;-86
2022/04/27 02:45:07;;;;;;;23.30;13.73;;;;;;;7.48;100.00;93026.88;5053629;28;20078;-85
2022/04/27 02:47:34;;;;;;;22.20;13.10;;;;;;;7.22;100.00;92991.84;5053378;28;20051;-84
2022/04/27 02:52:47;;;;;;;24.10;12.57;;;;;;;7.41;100.00;93027.84;5053470;28;20175;-84
2022/04/27 02:55:14;;;;;;;23.50;13.88;;;;;;;7.30;100.00;93022.31;5053024;28;20399;-84
2022/04/27 02:57:41;;;;;;;26.67;12.48;;;;;;;7.39;100.00;93030.59;5053230;28;20056;-85
2022/04/27 03:00:11;;;;;;;22.42;12.95;;;;;;;7.31;100.00;93020.56;5053352;28;20404;-84
2022/04/27 03:02:40;;;;;;;22.40;11.95;;;;;;;7.25;100.00;93018.75;5053299;28;20091;-85
2022/04/27 03:05:07;;;;;;;26.88;12.48;;;;;;;7.02;100.00;92979.03;5052977;28;20049;-85
2022/04/27 03:07:34;;;;;;;21.90;12.23;;;;;;;7.28;100.00;93026.84;5052860;28;20063;-85
2022/04/27 03:10:00;;;;;;;22.35;12.38;;;;;;;7.01;100.00;92995.34;5052026;28;20045;-85
2022/04/27 03:12:33;;;;;;;28.13;14.05;;;;;;;7.37;100.00;93047.09;5062865;28;20109;-86
2022/04/27 03:15:10;;;;;;;23.55;12.98;;;;;;;7.24;100.00;93035.88;5057346;28;20132;-87
2022/04/27 03:18:17;;;;;;;25.65;14.48;;;;;;;7.30;100.00;93045.31;5050648;28;20447;-87
2022/04/27 03:20:51;;;;;;;26.30;14.10;;;;;;;7.17;100.00;93047.84;5051034;28;20041;-87
2022/04/27 03:23:28;;;;;;;26.15;14.70;;;;;;;6.52;100.00;92977.50;5050803;28;20147;-87
2022/04/27 03:26:04;;;;;;;30.77;14.05;;;;;;;7.06;100.00;93057.63;5051025;28;20052;-87
2022/04/27 03:28:42;;;;;;;25.15;14.75;;;;;;;7.08;100.00;93059.97;5049924;28;20780;-87
2022/04/27 03:31:09;;;;;;;24.80;13.43;;;;;;;7.06;100.00;93070.41;5050814;28;20052;-84
2022/04/27 03:33:38;;;;;;;25.85;13.20;;;;;;;7.06;100.00;93074.72;5051021;28;20045;-85
2022/04/27 03:36:05;;;;;;;29.52;15.20;;;;;;;6.90;100.00;93056.19;5050915;28;20486;-85
2022/04/27 03:38:32;;;;;;;33.00;14.80;;;;;;;6.36;100.00;92986.25;5051203;28;20053;-85
2022/04/27 03:40:59;;;;;;;27.70;14.57;;;;;;;6.99;100.00;93079.78;5049425;28;20044;-86
2022/04/27 03:43:26;;;;;;;28.17;14.55;;;;;;;6.49;100.00;93014.38;5050764;28;20072;-84
2022/04/27 03:45:52;;;;;;;27.58;14.68;;;;;;;6.65;100.00;93046.47;5050785;28;20052;-82
2022/04/27 03:48:22;;;;;;;27.48;15.10;;;;;;;6.40;100.00;93013.75;5050733;28;20396;-86
2022/04/27 03:50:51;;;;;;;31.25;15.45;;;;;;;6.70;100.00;93052.78;5050515;28;20040;-86
2022/04/27 03:53:19;;;;;;;27.17;15.18;;;;;;;6.93;100.00;93083.91;5050854;28;20064;-86
2022/04/27 03:55:46;;;;;;;29.17;15.93;;;;;;;6.45;100.00;93003.00;5052167;28;20072;-85
2022/04/27 03:58:14;;;;;;;28.85;13.95;;;;;;;6.84;100.00;93074.81;5051800;28;20503;-84
2022/04/27 04:00:41;;;;;;;22.25;11.93;;;;;;;6.94;100.00;93097.44;5052196;28;20080;-85
2022/04/27 04:03:08;;;;;;;21.60;12.27;;;;;;;6.41;100.00;93017.09;5052036;28;20049;-84
2022/04/27 04:05:35;;;;;;;24.83;13.70;;;;;;;6.54;100.00;93034.25;5048594;28;20060;-85
2022/04/27 04:08:06;;;;;;;28.80;14.82;;;;;;;6.74;100.00;93066.72;5050065;28;20403;-86
2022/04/27 04:10:34;;;;;;;25.17;13.75;;;;;;;6.39;100.00;93016.50;5050963;28;20042;-85
2022/04/27 04:13:01;;;;;;;27.85;14.27;;;;;;;7.08;100.00;93122.06;5051628;28;20049;-85
2022/04/27 04:15:28;;;;;;;23.60;13.23;;;;;;;7.03;100.00;93118.53;5051991;28;20051;-84
2022/04/27 04:17:54;;;;;;;24.80;14.50;;;;;;;6.90;100.00;93089.38;5051715;28;20041;-84
2022/04/27 04:20:22;;;;;;;22.95;12.48;;;;;;;6.75;100.00;93058.09;5051528;28;20048;-84
2022/04/27 04:22:49;;;;;;;22.80;12.50;;;;;;;6.80;100.00;93063.41;5051620;28;20064;-84
2022/04/27 04:30:51;;;;;;;24.40;13.18;;;;;;;7.21;100.00;93072.00;5051111;28;20749;-85
2022/04/27 04:33:18;;;;;;;19.80;11.43;;;;;;;7.16;100.00;93054.72;5051491;28;20052;-85
2022/04/27 04:35:46;;;;;;;36.03;16.45;;;;;;;7.51;100.00;93081.13;5050305;28;20041;-86
2022/04/27 04:38:14;;;;;;;28.70;13.77;;;;;;;7.77;100.00;93116.19;5050933;28;20040;-85
2022/04/27 04:40:42;;;;;;;23.00;12.25;;;;;;;7.92;100.00;93122.91;5051072;28;20091;-85
2022/04/27 04:43:09;;;;;;;25.83;13.18;;;;;;;8.12;100.00;93133.94;5050898;28;20440;-86
2022/04/27 04:45:36;;;;;;;28.30;14.23;;;;;;;7.73;100.00;93058.78;5050795;28;20388;-85
2022/04/27 04:48:03;;;;;;;29.30;14.45;;;;;;;8.18;100.00;93099.09;5051103;28;20044;-85
2022/04/27 04:50:30;;;;;;;29.17;14.77;;;;;;;8.04;100.00;93066.84;5050832;28;20044;-85
2022/04/27 04:52:57;;;;;;;28.27;14.00;;;;;;;8.28;100.00;93081.59;5051032;28;20059;-86
2022/04/27 04:55:24;;;;;;;23.45;11.93;;;;;;;8.81;100.00;93126.03;5051279;28;20098;-86
2022/04/27 04:57:52;;;;;;;21.90;11.60;;;;;;;8.93;100.00;93123.66;5047242;28;20388;-85
2022/04/27 05:00:19;;;;;;;21.38;12.13;;;;;;;8.66;100.00;93062.25;5059454;28;20444;-85
2022/04/27 05:02:46;;;;;;;21.88;11.65;;;;;;;9.12;100.00;93108.41;5050952;28;20053;-85
2022/04/27 05:05:13;;;;;;;22.58;11.57;;;;;;;9.46;100.00;93132.16;5050338;28;20526;-85
2022/04/27 05:07:40;;;;;;;23.85;12.68;;;;;;;9.30;100.00;93083.91;5050604;28;20068;-85
2022/04/27 05:10:07;;;;;;;20.48;11.98;;;;;;;9.74;100.00;93117.41;5050694;28;20060;-85
2022/04/27 05:12:37;;;;;;;23.30;11.38;;;;;;;9.56;100.00;93072.72;5050777;28;20045;-86
2022/04/27 05:15:06;;;;;;;19.80;10.98;;;;;;;9.88;100.00;93092.44;5047541;28;20106;-85
2022/04/27 05:17:33;;;;;;;22.65;11.98;;;;;;;10.43;100.00;93130.34;5047701;28;20630;-86
2022/04/27 05:20:01;;;;;;;19.77;10.55;;;;;;;10.00;98.97;93033.56;5050567;28;20049;-86
2022/04/27 05:22:33;;;;;;;20.98;10.93;;;;;;;10.23;100.00;93058.63;5050478;28;20555;-86
2022/04/27 05:25:03;;;;;;;18.20;11.93;;;;;;;10.96;98.21;93143.72;5049985;28;20051;-86
2022/04/27 05:27:33;;;;;;;18.45;10.32;;;;;;;10.73;96.45;93069.84;5049693;28;20056;-85
2022/04/27 05:32:46;;;;;;;15.93;9.60;;;;;;;11.67;98.01;93134.81;5050180;28;20102;-86
2022/04/27 05:35:13;;;;;;;12.15;8.48;;;;;;;11.27;98.52;93064.09;5049789;28;20465;-85
2022/04/27 05:37:41;;;;;;;12.10;7.45;;;;;;;11.83;94.82;93114.63;5050241;28;20135;-86
2022/04/27 05:40:09;;;;;;;16.50;8.80;;;;;;;11.87;94.75;93079.72;5050057;28;20132;-86
2022/04/27 05:42:37;;;;;;;12.48;7.20;;;;;;;12.11;91.31;93085.72;5050183;28;20369;-86
2022/04/27 05:45:04;;;;;;;16.05;10.27;;;;;;;12.05;94.37;93080.66;5050440;28;20045;-86
2022/04/27 05:47:31;;;;;;;19.73;10.25;;;;;;;12.32;93.58;93109.38;5050328;28;20064;-85
2022/04/27 05:49:59;;;;;;;18.70;10.48;;;;;;;12.43;94.36;93131.00;5049956;28;20127;-85
2022/04/27 05:52:26;;;;;;;25.13;12.68;;;;;;;12.25;93.88;93068.28;5050025;28;20045;-85
2022/04/27 05:54:54;;;;;;;26.17;12.18;;;;;;;12.98;92.48;93131.66;5049913;28;20048;-85
2022/04/27 05:57:21;;;;;;;18.67;10.52;;;;;;;12.91;93.25;93131.00;5049917;28;20451;-86
2022/04/27 05:59:50;;;;;;;21.23;10.75;;;;;;;12.82;90.59;93074.63;5050227;28;20048;-88
2022/04/27 06:02:18;;;;;;;26.05;11.40;;;;;;;12.41;93.50;93069.38;5054399;28;20133;-87
2022/04/27 06:04:45;;;;;;;24.63;12.05;;;;;;;12.97;88.51;93078.53;5061305;28;20476;-86
2022/04/27 06:07:13;;;;;;;21.83;11.30;;;;;;;13.10;90.75;93142.75;5050316;28;20063;-87
2022/04/27 06:09:40;;;;;;;17.73;11.88;;;;;;;13.09;92.28;93130.88;5049748;28;20051;-85
2022/04/27 06:12:08;;;;;;;23.90;13.07;;;;;;;13.40;88.48;93114.41;5049568;28;20045;-85
2022/04/27 06:14:36;;;;;;;21.95;12.30;;;;;;;13.57;84.89;93065.47;5049628;28;20146;-86
2022/04/27 06:17:04;;;;;;;27.52;14.27;;;;;;;14.37;83.15;93140.41;5050007;28;20045;-86
2022/04/27 06:19:31;;;;;;;27.17;15.98;;;;;;;14.82;81.28;93143.16;5049811;28;20045;-85
2022/04/27 06:21:58;;;;;;;21.25;12.40;;;;;;;14.61;79.60;93067.06;5049620;28;20428;-85
2022/04/27 06:24:27;;;;;;;30.63;15.25;;;;;;;14.80;76.39;93070.97;5049669;28;20049;-86
2022/04/27 06:26:55;;;;;;;25.10;15.23;;;;;;;15.35;76.17;93096.19;5049721;28;20069;-86
2022/04/27 06:29:23;;;;;;;30.45;15.65;;;;;;;15.94;75.27;93143.97;5050031;28;20045;-87
2022/04/27 06:31:50;;;;;;;26.40;13.30;;;;;;;16.08;72.89;93151.34;5049206;28;20091;-87
2022/04/27 06:34:17;;;;;;;24.63;14.52;;;;;;;16.18;71.32;93084.06;5049489;28;20049;-86
2022/04/27 06:36:44;;;;;;;21.73;11.93;;;;;;;16.34;68.83;93074.56;5049418;28;20081;-87
2022/04/27 06:39:14;;;;;;;27.98;11.95;;;;;;;16.75;70.82;93153.69;5049632;28;20053;-86
2022/04/27 06:41:43;;;;;;;22.05;9.40;;;;;;;16.50;69.34;93074.69;5049684;28;20045;-87
2022/04/27 06:44:11;;;;;;;12.73;8.02;;;;;;;17.28;67.03;93127.81;5049551;28;20053;-87
2022/04/27 06:46:38;;;;;;;19.60;8.85;;;;;;;16.74;67.93;93123.56;5049592;28;20045;-87
2022/04/27 06:49:05;;;;;;;15.35;9.75;;;;;;;17.19;68.11;93144.88;5049569;28;20386;-87
2022/04/27 06:51:40;;;;;;;16.33;8.85;;;;;;;16.88;65.40;93080.63;5049141;28;20111;-88
2022/04/27 06:54:20;;;;;;;21.13;9.45;;;;;;;16.98;67.56;93085.06;5048479;28;20048;-90
2022/04/27 06:57:05;;;;;;;22.42;10.20;;;;;;;15.87;67.52;92998.28;5045769;28;20068;-92
2022/04/27 06:59:51;;;;;;;23.10;10.88;;;;;;;15.57;70.70;93031.47;5050568;28;20055;-90
2022/04/27 07:02:32;;;;;;;21.10;11.55;;;;;;;16.27;69.13;93072.22;5049999;28;20484;-90
2022/04/27 07:05:18;;;;;;;25.27;11.02;;;;;;;17.04;70.83;93132.63;5050326;28;20071;-89
2022/04/27 07:07:58;;;;;;;7.57;4.85;;;;;;;15.46;71.25;93025.38;5050528;28;20138;-90
2022/04/27 07:10:38;;;;;;;8.02;5.18;;;;;;;16.97;70.39;93127.63;5050522;28;20048;-90
2022/04/27 07:13:23;;;;;;;11.77;6.68;;;;;;;16.63;69.12;93113.16;5050564;28;20048;-90
2022/04/27 07:16:05;;;;;;;12.98;7.15;;;;;;;16.38;68.83;93067.09;5050516;28;20115;-92
2022/04/27 07:18:48;;;;;;;11.98;6.63;;;;;;;17.11;69.15;93124.63;5048932;28;20053;-89
2022/04/27 07:21:26;;;;;;;9.65;5.50;;;;;;;17.23;66.38;93127.78;5049761;28;20083;-90
2022/04/27 07:24:07;;;;;;;9.65;5.18;;;;;;;17.33;64.63;93080.31;5050867;28;20041;-90
2022/04/27 07:26:47;;;;;;;8.80;4.78;;;;;;;18.16;62.85;93116.88;5047824;28;20071;-89
2022/04/27 07:29:24;;;;;;;12.52;5.50;;;;;;;18.48;61.18;93076.03;5053926;28;20052;-88
2022/04/27 07:32:04;;;;;;;10.65;5.85;;;;;;;19.09;59.34;93092.59;5050960;28;20693;-91
2022/04/27 07:34:47;;;;;;;16.10;6.32;;;;;;;19.39;57.86;93096.13;5050051;28;20266;-91
2022/04/27 07:37:27;;;;;;;14.80;7.55;;;;;;;19.62;56.13;93130.41;5050030;28;20045;-91
2022/04/27 07:40:07;;;;;;;23.15;9.48;;;;;;;18.90;57.45;93068.94;5049628;28;20443;-89
2022/04/27 07:42:44;;;;;;;20.70;8.85;;;;;;;18.03;56.59;92999.38;5050031;28;20083;-92
2022/04/27 07:45:29;;;;;;;19.70;10.43;;;;;;;18.90;58.53;93090.56;5049906;28;20499;-90
2022/04/27 07:48:19;;;;;;;21.38;9.15;;;;;;;18.16;59.86;93010.31;5050273;28;20504;-92
2022/04/27 07:50:56;;;;;;;20.80;8.15;;;;;;;19.27;57.73;93132.91;5049756;28;20400;-89
2022/04/27 07:53:36;;;;;;;15.05;7.13;;;;;;;18.08;59.10;93003.00;5050046;28;20092;-91
2022/04/27 07:56:12;;;;;;;20.48;8.35;;;;;;;18.92;59.28;93012.19;5048330;28;20132;-92
2022/04/27 07:58:51;;;;;;;22.85;7.20;;;;;;;19.56;57.40;92993.41;5046365;28;20048;-90
2022/04/27 08:01:33;;;;;;;22.25;8.93;;;;;;;20.88;56.09;93100.59;5047511;28;20051;-89
2022/04/27 08:04:11;;;;;;;22.98;8.32;;;;;;;21.43;53.93;93094.25;5049704;28;20045;-90
2022/04/27 08:06:43;;;;;;;15.80;6.47;;;;;;;21.69;50.29;93073.03;5050682;28;20060;-89
2022/04/27 08:09:20;;;;;;;18.33;7.22;;;;;;;22.07;50.20;93072.25;5049918;28;20499;-90
2022/04/27 08:11:58;;;;;;;26.95;8.68;;;;;;;22.33;48.69;93053.53;5051129;28;20404;-90
2022/04/27 08:14:36;;;;;;;21.98;9.90;;;;;;;23.01;45.94;93089.81;5051279;28;20132;-90
2022/04/27 08:17:20;;;;;;;22.98;8.68;;;;;;;22.68;44.14;93040.16;5051270;28;20052;-91
2022/04/27 08:21:13;;;;;;;20.20;7.82;;;;;;;23.07;42.72;93080.81;5051200;28;20045;-90
2022/04/27 08:22:55;;;;;;;21.00;7.18;;;;;;;22.34;43.82;93068.16;5051361;28;20045;-90
2022/04/27 08:25:32;;;;;;;19.92;9.13;;;;;;;21.92;46.69;93102.03;5051145;28;20049;-89
2022/04/27 08:28:10;;;;;;;20.90;8.95;;;;;;;22.15;48.08;93055.13;5051086;28;20095;-88
2022/04/27 08:30:52;;;;;;;23.40;8.93;;;;;;;22.23;46.54;92999.56;5050756;28;20114;-91
2022/04/27 08:33:34;;;;;;;22.63;7.22;;;;;;;21.99;48.16;93039.66;5050803;28;20055;-90
2022/04/27 08:36:06;;;;;;;17.15;7.68;;;;;;;22.61;45.29;93097.34;5051325;28;20412;-90
2022/04/27 08:38:44;;;;;;;18.10;7.60;;;;;;;22.37;44.83;93104.25;5050576;28;20048;-90
2022/04/27 08:41:22;;;;;;;14.73;7.53;;;;;;;21.56;46.39;93018.84;5050561;28;20431;-90
2022/04/27 08:44:01;;;;;;;20.42;6.60;;;;;;;20.58;48.98;92968.56;5050698;28;20385;-91
2022/04/27 08:46:40;;;;;;;18.33;7.53;;;;;;;20.74;49.59;93037.03;5065418;28;20051;-89
2022/04/27 08:49:15;;;;;;;17.38;7.13;;;;;;;21.64;50.36;93091.38;5053243;28;20064;-90
2022/04/27 08:51:51;;;;;;;17.13;6.97;;;;;;;22.25;48.69;93085.56;5050347;28;20072;-89
2022/04/27 08:54:25;;;;;;;19.50;7.53;;;;;;;22.57;46.20;93044.78;5049164;28;20044;-89
2022/04/27 08:56:59;;;;;;;24.20;6.57;;;;;;;23.38;46.60;93079.47;5050149;28;20052;-87
2022/04/27 08:59:37;;;;;;;14.55;5.38;;;;;;;22.87;43.46;92971.97;5050523;28;20045;-89
2022/04/27 09:02:31;;;;;;;9.77;3.92;;;;;;;23.22;43.16;93084.19;5049942;28;20051;-89
2022/04/27 09:05:20;;;;;;;15.35;4.68;;;;;;;22.84;44.44;93056.34;5049888;28;20182;-86
2022/04/27 09:07:56;;;;;;;13.63;5.10;;;;;;;23.02;45.07;93067.03;5049981;28;20128;-87
2022/04/27 09:10:30;;;;;;;13.65;4.00;;;;;;;23.05;42.08;92995.72;5047526;28;20415;-87
2022/04/27 09:13:05;;;;;;;12.95;5.25;;;;;;;23.65;44.79;93062.13;5049916;28;20099;-89
2022/04/27 09:15:38;;;;;;;10.77;4.55;;;;;;;23.85;42.94;93031.28;5050254;28;20093;-88
2022/04/27 09:21:09;;;;;;;10.50;3.90;;;;;;;24.41;41.78;92987.22;5049712;28;20060;-87
2022/04/27 09:23:40;;;;;;;18.95;4.50;;;;;;;24.94;41.29;93005.78;5049974;28;20106;-87
2022/04/27 09:26:22;;;;;;;11.57;4.43;;;;;;;25.46;40.55;93049.03;5050203;28;20515;-88
2022/04/27 09:28:51;;;;;;;11.60;3.70;;;;;;;25.05;40.47;93045.69;5049786;28;20045;-87
2022/04/27 09:31:29;;;;;;;6.20;2.85;;;;;;;25.10;38.76;92997.50;5050144;28;20044;-86
2022/04/27 09:34:27;;;;;;;6.70;2.65;;;;;;;25.44;36.76;93029.38;5050156;28;20063;-88
2022/04/27 09:36:57;;;;;;;8.45;2.60;;;;;;;25.16;36.14;92974.44;5049740;28;20060;-87
2022/04/27 09:39:26;;;;;;;5.63;1.58;;;;;;;25.70;37.37;93028.66;5050167;28;20052;-87
2022/04/27 09:42:09;;;;;;;3.53;1.10;;;;;;;25.97;35.33;93024.94;5049833;28;20053;-89
2022/04/27 09:44:42;;;;;;;4.97;1.42;;;;;;;25.98;35.51;92988.88;5049532;28;20045;-88
2022/04/27 09:47:20;;;;;;;2.63;1.17;;;;;;;26.05;34.13;92986.53;5049843;28;20053;-89
2022/04/27 09:50:01;;;;;;;3.13;1.00;;;;;;;26.65;34.48;93033.34;5049851;28;20041;-88
2022/04/27 09:52:40;;;;;;;3.13;1.00;;;;;;;26.86;33.19;93030.78;5049591;28;20132;-88
2022/04/27 09:55:14;;;;;;;1.90;0.80;;;;;;;26.72;33.85;93006.50;5049892;28;20048;-88
2022/04/27 09:57:44;;;;;;;3.35;0.88;;;;;;;26.96;31.18;93016.50;5049380;28;20049;-87
2022/04/27 10:00:14;;;;;;;2.08;0.88;;;;;;;26.94;33.91;92997.63;5050167;28;20058;-88
2022/04/27 10:03:14;;;;;;;1.30;0.70;;;;;;;26.15;31.95;92909.13;5050240;28;20140;-87
2022/04/27 10:05:44;;;;;;;1.02;0.45;;;;;;;27.06;31.99;93023.28;5049195;28;20053;-88
2022/04/27 10:08:13;;;;;;;3.80;1.15;;;;;;;26.95;32.63;93022.88;5050141;28;20041;-88
2022/04/27 10:10:41;;;;;;;4.22;0.77;;;;;;;27.07;32.09;93022.97;5049973;28;20102;-86
2022/04/27 10:13:14;;;;;;;2.92;1.33;;;;;;;26.94;32.08;92969.38;5049652;28;20076;-87
2022/04/27 10:15:50;;;;;;;2.33;0.73;;;;;;;26.92;29.46;92955.75;5049462;28;20064;-88
2022/04/27 10:18:21;;;;;;;1.95;0.70;;;;;;;27.55;32.04;93022.06;5048984;28;20106;-87
2022/04/27 10:20:52;;;;;;;3.13;0.90;;;;;;;27.55;30.30;93014.13;5046687;28;20064;-88
2022/04/27 10:23:27;;;;;;;1.50;0.70;;;;;;;27.45;29.51;92952.00;5048705;28;20045;-87
2022/04/27 10:26:17;;;;;;;2.60;1.08;;;;;;;27.45;28.70;92925.63;5049614;28;20136;-87
2022/04/27 10:28:50;;;;;;;3.35;0.65;;;;;;;27.72;29.96;92966.53;5049650;28;20063;-89
2022/04/27 10:31:55;;;;;;;1.55;0.50;;;;;;;28.11;27.55;93005.94;5049753;28;20040;-89
2022/04/27 10:34:25;;;;;;;1.42;0.60;;;;;;;27.94;26.94;92958.56;5042693;28;20044;-89
2022/04/27 10:36:53;;;;;;;2.40;0.63;;;;;;;28.14;25.81;92994.72;5053107;28;20510;-87
2022/04/27 10:39:32;;;;;;;2.22;0.47;;;;;;;27.64;27.84;92922.53;5053630;28;20045;-90
2022/04/27 10:42:32;;;;;;;2.67;0.47;;;;;;;28.06;25.06;92952.56;5053863;28;20388;-88
2022/04/27 10:45:18;;;;;;;1.20;0.40;;;;;;;27.58;26.63;92878.97;5053337;28;20048;-91
2022/04/27 10:47:46;;;;;;;2.75;1.00;;;;;;;28.28;26.69;92931.06;5052787;28;20075;-88
2022/04/27 10:50:26;;;;;;;2.08;0.77;;;;;;;28.50;27.55;92958.16;5053475;28;20369;-87
2022/04/27 10:52:55;;;;;;;4.35;0.88;;;;;;;28.31;27.34;92927.00;5049918;28;20041;-87
2022/04/27 10:55:48;;;;;;;2.72;0.88;;;;;;;28.74;28.18;92977.00;5051751;28;20381;-87
2022/04/27 10:58:34;;;;;;;1.33;0.40;;;;;;;28.71;27.17;92975.81;5053185;28;20076;-88
2022/04/27 11:01:30;;;;;;;2.00;0.68;;;;;;;28.53;25.17;92965.44;5052838;28;20048;-87
2022/04/27 11:04:11;;;;;;;1.77;0.93;;;;;;;28.19;25.55;92885.47;5052820;28;20048;-88
2022/04/27 11:07:24;;;;;;;3.42;0.73;;;;;;;28.18;23.94;92889.22;5052655;28;20065;-88
2022/04/27 11:10:13;;;;;;;4.60;0.82;;;;;;;28.67;25.88;92900.91;5036882;28;20045;-87
2022/04/27 11:12:50;;;;;;;1.75;0.57;;;;;;;29.07;25.75;92945.16;5052820;28;20636;-90
2022/04/27 11:15:21;;;;;;;3.08;0.73;;;;;;;29.21;26.37;92947.44;5067631;28;20071;-87
2022/04/27 11:17:55;;;;;;;2.65;0.70;;;;;;;29.01;26.11;92933.28;5055833;28;20057;-86
2022/04/27 11:20:32;;;;;;;2.20;0.60;;;;;;;28.98;25.97;92923.38;5053173;28;20045;-91
2022/04/27 11:23:12;;;;;;;3.90;0.75;;;;;;;29.03;24.73;92933.75;5052267;28;20048;-90
2022/04/27 11:26:00;;;;;;;2.58;0.65;;;;;;;29.04;25.27;92908.06;5051922;28;20045;-89
2022/04/27 11:28:44;;;;;;;3.45;0.98;;;;;;;29.12;24.30;92914.31;5052416;28;20045;-91
2022/04/27 11:31:35;;;;;;;6.18;0.80;;;;;;;28.88;25.42;92871.72;5051957;28;20708;-93
2022/04/27 11:34:21;;;;;;;4.03;0.85;;;;;;;29.08;26.36;92924.78;5051703;28;20480;-89
2022/04/27 11:37:07;;;;;;;1.40;0.60;;;;;;;28.17;25.57;92789.97;5052547;28;20048;-92
2022/04/27 11:39:43;;;;;;;2.97;1.23;;;;;;;29.04;26.24;92908.06;5051885;28;20404;-90
2022/04/27 11:42:13;;;;;;;3.33;0.77;;;;;;;29.09;25.19;92918.41;5052075;28;20060;-89
2022/04/27 11:44:42;;;;;;;2.28;0.98;;;;;;;28.97;25.00;92911.25;5052192;28;20059;-87
2022/04/27 11:47:29;;;;;;;3.17;0.77;;;;;;;29.00;25.41;92888.66;5051887;28;20845;-88
2022/04/27 11:50:01;;;;;;;1.75;0.65;;;;;;;29.28;25.05;92912.50;5052048;28;20098;-88
2022/04/27 11:52:31;;;;;;;2.35;0.50;;;;;;;29.00;24.93;92860.38;5051918;28;20094;-89
2022/04/27 11:55:03;;;;;;;3.28;1.02;;;;;;;29.14;24.90;92867.94;5051804;28;20404;-88
2022/04/27 11:57:33;;;;;;;5.05;0.95;;;;;;;29.65;25.15;92894.97;5052180;28;20053;-88
2022/04/27 12:00:05;;;;;;;2.90;0.82;;;;;;;29.85;23.88;92887.94;5052446;28;20087;-90
2022/04/27 12:02:38;;;;;;;6.70;1.33;;;;;;;29.57;22.45;92841.88;5052064;28;20053;-89
2022/04/27 12:05:16;;;;;;;1.55;0.70;;;;;;;29.58;22.67;92906.91;5050859;28;20052;-93
2022/04/27 12:07:50;;;;;;;2.88;0.70;;;;;;;27.73;25.16;92880.25;5051469;28;20589;-89